weather.gov     
National Weather Service

Other Surface Observations
NWS Homepage
This page is being discontinued on March 12, 2014.
The same data is available at this site. Please update your bookmarks.
Thank you, and we apologize for the inconvenience.
Please send an email to SR-SRH.Webmaster@noaa.gov with any concerns.


Current Version
Previous Version:    01  02  03  04  05  06  07  08  09  10  11  12  13  14  15  16  17  18  19  20  21  22  23  24  25  26  27  28  29  30  
   31  32  33  34  35  36  37  38  39  40  41  42  43  44  45  46  47  48  49  50  51  52  53  54  55  56  57  58  59  60  
[Printable]
919
SXUS55 KTFX 021709
OSOTFX
AREA AWOS OBSERVATIONS
NATIONAL WEATHER SERVICE GREAT FALLS MT
1105 AM MDT TUE SEP 02 2014

METAR KPWD 021700Z AUTO 28012KT 10SM 18/08 A2978 RMK PLENTYWOOD
METAR K1S3 021700Z AUTO 28006KT 10SM 20/06 A2989 RMK FORSYTH
METAR KS71 021700Z AUTO 25006KT 10SM 19/06 A2982 RMK CHINOOK
METAR K6S0 021700Z AUTO 10SM 19/03 A2994 RMK BIG TIMBER
METAR K79S 021700Z AUTO 21009KT 10SM 19/05 A2985 RMK FORT BENTON
METAR KEKS 021700Z AUTO 19015G18KT 10SM 19/02 A3006 RMK ENNIS
METAR K38S 021700Z AUTO 14006KT 10SM 18/06 A2997 RMK DEER LODGE
METAR K3U3 021700Z AUTO 20011G16KT 18/01 A2995 RMK ANACONDA
METAR K6S5 021700Z AUTO 00000KT 10SM 17/07 A2991 RMK HAMILTON
METAR KS59 021700Z AUTO 00000KT 10SM 13/06 A2984 RMK LIBBY
METAR K88M 021700Z AUTO 14010G14KT 10SM 18/05 A2983 RMK EUREKA




U.S. Dept. of Commerce
NOAA National Weather Service
1325 East West Highway
Silver Spring, MD 20910
E-mail: w-nws.webmaster@noaa.gov
Page last modified: May 16, 2007
NATIONAL WEATHER SERVICE: for Safety, for Work, for Fun - FOR LIFE